Kathmandu, Nepal
Current Conditions -  °F | °C
As of 11:50 AM on Friday 31 Oct 2014 (Local Time) from VNKT Reporting Station
Scattered Clouds Scattered Clouds  
Wind Chill: 73°   Ceiling: Unl
Heat Index: 73°   Visibility: 4mi
Dew Point: 52°   Wind: 5mph
Humidity: 47%   Direction: 330°NNW
Pressure: 30.09"   Gusts: NA
Location:  27.71°N, 85.31°E
Report Text: VNKT 310650Z 33004KT 6000 SCT025 SCT250 23/11 Q1019 NOSIG
Loading
Personal Weather Stations






























Interactive Weather Map
Tropical Storm Tracking
New forecast layout! Learn more

10-Day Weather Forecast

Advertisements
Track Severe Weather on mobile